Time;durP1;ratioP1;P1;durP2;ratioP2;P2;SDS_P1;SDS_P2;PMS_P1;PMS_P2;Temp;Humidity;BMP_temperature;BMP_pressure;BME280_temperature;BME280_humidity;BME280_pressure;Samples;Min_cycle;Max_cycle;Signal;HPM_P1;HPM_P2
2020/12/31 00:02:21;;;;;;;18.00;13.05;;;;;;;3.95;79.57;97956.75;5028517;28;20275;-85
2020/12/31 00:04:50;;;;;;;21.48;13.60;;;;;;;3.88;79.82;97951.88;5013727;28;20221;-83
2020/12/31 00:07:17;;;;;;;24.30;14.18;;;;;;;3.69;80.57;97946.75;5017121;28;20228;-85
2020/12/31 00:09:45;;;;;;;22.80;14.82;;;;;;;3.77;80.92;97947.19;5035296;28;20237;-84
2020/12/31 00:12:12;;;;;;;21.25;13.57;;;;;;;3.57;80.63;97939.47;5011571;28;20670;-85
2020/12/31 00:14:40;;;;;;;21.30;13.88;;;;;;;3.72;81.29;97933.28;5029638;28;20210;-85
2020/12/31 00:17:07;;;;;;;20.15;12.68;;;;;;;3.76;80.73;97936.63;5008458;28;20222;-85
2020/12/31 00:19:34;;;;;;;19.65;13.98;;;;;;;3.71;80.41;97936.88;5020741;28;20228;-86
2020/12/31 00:22:03;;;;;;;20.23;13.32;;;;;;;3.65;80.25;97933.75;5017969;28;20244;-84
2020/12/31 00:24:29;;;;;;;18.50;13.35;;;;;;;3.72;80.41;97933.28;5025118;28;20807;-85
2020/12/31 00:26:56;;;;;;;21.45;13.93;;;;;;;3.76;80.34;97929.50;5013585;28;20320;-84
2020/12/31 00:29:22;;;;;;;21.15;13.57;;;;;;;3.81;80.28;97927.47;5016538;28;20210;-85
2020/12/31 00:31:48;;;;;;;17.75;12.23;;;;;;;3.91;80.06;97928.63;5024606;28;20242;-85
2020/12/31 00:34:14;;;;;;;22.42;13.70;;;;;;;3.89;79.00;97919.88;4995653;28;20276;-85
2020/12/31 00:36:41;;;;;;;20.60;12.00;;;;;;;3.79;79.03;97926.66;4997681;28;20230;-86
2020/12/31 00:39:07;;;;;;;18.90;12.38;;;;;;;3.75;79.49;97925.16;5000839;28;20229;-82
2020/12/31 00:41:33;;;;;;;16.95;11.63;;;;;;;3.68;79.96;97925.59;5020728;28;20249;-82
2020/12/31 00:44:03;;;;;;;19.08;12.27;;;;;;;3.80;79.64;97924.88;5009643;28;20222;-83
2020/12/31 00:46:30;;;;;;;18.20;12.52;;;;;;;3.85;79.52;97918.34;5015726;28;20341;-83
2020/12/31 00:48:56;;;;;;;16.75;12.32;;;;;;;3.84;79.53;97921.94;5014318;28;20222;-83
2020/12/31 00:51:22;;;;;;;18.10;11.35;;;;;;;3.89;79.17;97917.22;5017570;28;20211;-83
2020/12/31 00:53:49;;;;;;;15.77;12.13;;;;;;;3.67;79.40;97913.25;5022223;28;20226;-81
2020/12/31 00:56:19;;;;;;;17.08;11.43;;;;;;;3.68;79.79;97913.16;5030232;28;20213;-82
2020/12/31 00:58:46;;;;;;;16.95;11.00;;;;;;;3.65;79.74;97915.97;5008959;28;20256;-81
2020/12/31 01:01:13;;;;;;;17.50;11.07;;;;;;;3.61;80.00;97906.44;5022386;28;20318;-82
2020/12/31 01:03:39;;;;;;;17.63;11.85;;;;;;;3.69;79.43;97908.69;5018458;28;20214;-83
2020/12/31 01:06:06;;;;;;;17.05;10.40;;;;;;;3.70;79.20;97907.72;5032606;28;20238;-82
2020/12/31 01:08:32;;;;;;;17.13;11.50;;;;;;;3.67;79.49;97899.94;5025700;28;20278;-82
2020/12/31 01:10:59;;;;;;;16.45;11.30;;;;;;;3.69;78.90;97900.72;5026541;28;20222;-82
2020/12/31 01:13:25;;;;;;;14.85;10.68;;;;;;;3.69;78.85;97901.56;5033534;28;20232;-82
2020/12/31 01:15:51;;;;;;;14.30;11.07;;;;;;;3.61;79.12;97903.78;5020797;28;20217;-82
2020/12/31 01:18:17;;;;;;;19.05;10.23;;;;;;;3.68;79.30;97904.31;5014823;28;20281;-81
2020/12/31 01:20:43;;;;;;;12.00;9.30;;;;;;;3.75;78.66;97897.69;5014403;28;20194;-82
2020/12/31 01:23:09;;;;;;;14.07;10.00;;;;;;;3.72;78.18;97897.91;5030396;28;20252;-81
2020/12/31 01:25:36;;;;;;;16.40;11.27;;;;;;;3.69;78.42;97900.72;5021804;28;20214;-82
2020/12/31 01:28:04;;;;;;;12.90;9.73;;;;;;;3.53;78.62;97898.06;5012126;28;20289;-80
2020/12/31 01:30:30;;;;;;;15.43;10.50;;;;;;;3.54;78.88;97891.81;5017664;28;20236;-82
2020/12/31 01:32:57;;;;;;;13.73;9.05;;;;;;;3.61;78.84;97889.66;5012137;28;20201;-80
2020/12/31 01:35:23;;;;;;;14.65;10.07;;;;;;;3.55;78.35;97882.06;5014051;28;20210;-83
2020/12/31 01:37:50;;;;;;;13.85;9.38;;;;;;;3.47;78.22;97879.81;5012714;28;20226;-82
2020/12/31 01:40:16;;;;;;;12.65;9.00;;;;;;;3.48;78.63;97878.03;5011503;28;21546;-83
2020/12/31 01:42:44;;;;;;;13.02;8.57;;;;;;;3.40;78.66;97872.31;5026747;28;20238;-82
2020/12/31 01:45:11;;;;;;;12.98;8.50;;;;;;;3.31;79.20;97867.50;5017858;28;21841;-81
2020/12/31 01:47:41;;;;;;;18.27;10.23;;;;;;;3.38;79.36;97866.22;5026252;28;20274;-82
2020/12/31 01:50:07;;;;;;;12.55;8.70;;;;;;;3.43;78.96;97870.34;5018457;28;20867;-81
2020/12/31 01:52:34;;;;;;;14.88;8.32;;;;;;;3.40;78.05;97867.00;5019673;28;20233;-81
2020/12/31 01:55:08;;;;;;;13.52;8.25;;;;;;;3.38;78.28;97869.72;5023771;28;20218;-86
2020/12/31 01:57:38;;;;;;;10.18;7.70;;;;;;;3.42;77.37;97865.97;5012959;28;20236;-85
2020/12/31 02:00:05;;;;;;;12.02;8.00;;;;;;;3.48;77.63;97862.94;5021329;28;20300;-84
2020/12/31 02:02:38;;;;;;;11.52;8.40;;;;;;;3.52;77.30;97868.97;5015784;28;20229;-83
2020/12/31 02:05:04;;;;;;;10.70;7.57;;;;;;;3.57;76.36;97866.88;5019367;28;20223;-84
2020/12/31 02:07:32;;;;;;;11.90;7.65;;;;;;;3.63;76.25;97870.03;5003574;28;20234;-83
2020/12/31 02:09:59;;;;;;;9.50;6.75;;;;;;;3.59;76.09;97868.50;5033523;28;20246;-84
2020/12/31 02:12:25;;;;;;;9.18;7.15;;;;;;;3.56;75.85;97862.50;4997494;28;20264;-84
2020/12/31 02:14:52;;;;;;;15.00;8.10;;;;;;;3.49;75.98;97866.47;5015711;28;20265;-84
2020/12/31 02:17:19;;;;;;;9.70;7.85;;;;;;;3.32;76.56;97859.44;5013351;28;20209;-83
2020/12/31 02:19:45;;;;;;;10.95;7.55;;;;;;;3.32;77.15;97854.13;4997746;28;20221;-85
2020/12/31 02:22:12;;;;;;;10.63;8.05;;;;;;;3.23;77.65;97857.34;5011830;28;20225;-83
2020/12/31 02:24:39;;;;;;;11.35;7.63;;;;;;;3.31;77.01;97854.22;5000673;28;20372;-84
2020/12/31 02:27:06;;;;;;;8.52;6.80;;;;;;;3.15;77.36;97856.88;5020653;28;20226;-84
2020/12/31 02:29:32;;;;;;;9.10;6.88;;;;;;;3.37;77.41;97865.38;5016617;28;20202;-86
2020/12/31 02:31:58;;;;;;;13.43;7.55;;;;;;;3.24;77.39;97866.13;5020728;28;20273;-87
2020/12/31 02:34:26;;;;;;;8.75;6.05;;;;;;;3.50;76.70;97869.03;5027117;28;20206;-85
2020/12/31 02:36:53;;;;;;;8.20;6.18;;;;;;;3.62;75.97;97860.34;5018514;28;20268;-87
2020/12/31 02:39:20;;;;;;;8.90;6.70;;;;;;;3.45;75.26;97860.47;5021204;28;20257;-86
2020/12/31 02:41:46;;;;;;;12.63;7.75;;;;;;;3.58;75.43;97856.16;5022697;28;20222;-86
2020/12/31 02:44:12;;;;;;;10.85;7.45;;;;;;;3.41;75.99;97858.06;5017606;28;20222;-87
2020/12/31 02:46:41;;;;;;;8.75;6.55;;;;;;;3.25;76.21;97850.13;5004519;28;20230;-87
2020/12/31 02:49:30;;;;;;;7.95;5.80;;;;;;;3.02;76.23;97847.91;4985448;28;20218;-83
2020/12/31 02:51:57;;;;;;;7.63;5.50;;;;;;;3.09;77.38;97843.94;4993410;28;20230;-85
2020/12/31 02:54:37;;;;;;;6.78;5.25;;;;;;;3.02;76.55;97841.75;5003542;28;20213;-85
2020/12/31 02:57:04;;;;;;;7.93;5.90;;;;;;;2.96;77.09;97842.91;5012010;28;20214;-86
2020/12/31 02:59:30;;;;;;;6.75;5.57;;;;;;;3.00;77.24;97844.47;5018756;28;20209;-85
2020/12/31 03:01:56;;;;;;;7.93;6.47;;;;;;;2.96;77.01;97845.59;5003110;28;20302;-86
2020/12/31 03:04:22;;;;;;;7.38;5.18;;;;;;;2.99;77.07;97834.81;5029019;28;20247;-85
2020/12/31 03:06:48;;;;;;;8.13;5.28;;;;;;;2.97;77.52;97835.84;5029213;28;20202;-86
2020/12/31 03:09:14;;;;;;;8.63;6.10;;;;;;;2.98;77.83;97840.19;5022106;28;20274;-86
2020/12/31 03:11:40;;;;;;;5.05;4.35;;;;;;;3.19;76.18;97842.50;5023937;28;20409;-86
2020/12/31 03:14:07;;;;;;;5.80;4.53;;;;;;;3.13;75.91;97844.63;5010647;28;20218;-85
2020/12/31 03:16:34;;;;;;;5.63;5.03;;;;;;;3.17;76.02;97835.56;4994344;28;20229;-85
2020/12/31 03:19:04;;;;;;;10.07;5.70;;;;;;;3.22;76.23;97841.47;5003074;28;20227;-85
2020/12/31 03:21:30;;;;;;;6.70;5.75;;;;;;;3.23;76.33;97837.88;5008987;28;20230;-85
2020/12/31 03:23:57;;;;;;;8.98;6.43;;;;;;;3.30;76.02;97840.09;5007111;28;20683;-84
2020/12/31 03:26:23;;;;;;;9.27;6.45;;;;;;;3.35;76.02;97831.84;5007084;28;20772;-84
2020/12/31 03:28:49;;;;;;;6.18;5.15;;;;;;;3.48;75.40;97836.34;5013568;28;20249;-84
2020/12/31 03:31:16;;;;;;;7.63;5.75;;;;;;;3.36;75.62;97829.13;5005812;28;21480;-85
2020/12/31 03:33:42;;;;;;;7.07;5.43;;;;;;;3.40;75.37;97827.16;5017443;28;20233;-86
2020/12/31 03:36:08;;;;;;;7.05;4.82;;;;;;;3.41;75.23;97827.03;5022180;28;20266;-85
2020/12/31 03:38:35;;;;;;;6.85;5.13;;;;;;;3.35;75.31;97823.88;5020537;28;20226;-86
2020/12/31 03:41:02;;;;;;;7.10;5.50;;;;;;;3.30;74.78;97810.00;5011937;28;20370;-86
2020/12/31 03:43:28;;;;;;;6.15;5.07;;;;;;;3.38;75.00;97805.09;5014644;28;20221;-86
2020/12/31 03:45:54;;;;;;;7.15;5.68;;;;;;;3.38;74.87;97800.66;5012704;28;20239;-84
2020/12/31 03:48:21;;;;;;;7.00;5.20;;;;;;;3.37;74.76;97793.63;5012509;28;20262;-86
2020/12/31 03:50:47;;;;;;;7.80;4.43;;;;;;;3.37;74.77;97788.31;5021974;28;20202;-85
2020/12/31 03:53:13;;;;;;;6.05;4.40;;;;;;;3.43;74.03;97787.97;5007248;28;20218;-84
2020/12/31 03:55:39;;;;;;;6.03;4.30;;;;;;;3.81;72.88;97788.34;5016701;28;20222;-84
2020/12/31 03:58:05;;;;;;;5.45;4.50;;;;;;;3.69;72.50;97783.75;5003096;28;20213;-85
2020/12/31 04:00:32;;;;;;;5.80;4.85;;;;;;;3.52;73.67;97787.41;5044079;28;20225;-83
2020/12/31 04:02:58;;;;;;;5.68;4.68;;;;;;;3.40;74.09;97782.81;5029767;28;20194;-84
2020/12/31 04:05:24;;;;;;;6.45;4.85;;;;;;;3.39;74.29;97775.81;5037462;28;20301;-85
2020/12/31 04:07:50;;;;;;;7.63;5.15;;;;;;;3.38;74.39;97768.78;5019363;28;20239;-85
2020/12/31 04:11:08;;;;;;;7.82;5.40;;;;;;;3.36;74.27;97764.50;5027450;28;20225;-85
2020/12/31 04:13:34;;;;;;;7.35;4.90;;;;;;;3.48;74.72;97764.63;5032810;28;20236;-85
2020/12/31 04:16:00;;;;;;;6.63;4.97;;;;;;;3.80;71.06;97752.91;5018905;28;20218;-85
2020/12/31 04:18:26;;;;;;;6.68;4.93;;;;;;;3.74;71.04;97749.78;5017980;28;20253;-86
2020/12/31 04:20:52;;;;;;;9.10;5.30;;;;;;;3.61;71.21;97754.97;4995321;28;20293;-84
2020/12/31 04:23:18;;;;;;;6.90;4.80;;;;;;;3.60;71.11;97749.78;5012867;28;20214;-84
2020/12/31 04:25:44;;;;;;;6.05;4.75;;;;;;;3.44;71.45;97744.50;5015223;28;20301;-83
2020/12/31 04:28:11;;;;;;;5.30;4.30;;;;;;;3.51;70.85;97740.53;5009173;28;20273;-84
2020/12/31 04:30:37;;;;;;;6.57;5.15;;;;;;;3.31;71.69;97738.22;5013535;28;20227;-83
2020/12/31 04:33:03;;;;;;;6.82;4.97;;;;;;;3.65;71.37;97742.38;5008890;28;20202;-84
2020/12/31 04:35:29;;;;;;;6.03;4.93;;;;;;;3.39;71.79;97743.06;5028624;28;20240;-85
2020/12/31 04:37:55;;;;;;;6.07;4.68;;;;;;;3.52;70.82;97733.44;5016318;28;20248;-88
2020/12/31 04:40:22;;;;;;;6.82;4.18;;;;;;;3.48;70.71;97737.22;5008368;28;20221;-85
2020/12/31 04:42:51;;;;;;;5.22;4.47;;;;;;;3.46;70.21;97739.13;5014108;28;20205;-85
2020/12/31 04:45:21;;;;;;;7.97;5.07;;;;;;;3.42;70.76;97735.78;5027069;28;20221;-86
2020/12/31 04:47:54;;;;;;;5.18;4.68;;;;;;;3.27;71.30;97733.19;5027959;28;20274;-84
2020/12/31 04:50:21;;;;;;;5.70;4.38;;;;;;;3.20;71.38;97732.66;5026628;28;20218;-84
2020/12/31 04:52:48;;;;;;;5.60;4.50;;;;;;;3.18;72.00;97729.25;5016401;28;20659;-84
2020/12/31 04:55:21;;;;;;;6.15;4.40;;;;;;;3.18;71.80;97734.56;5018058;28;20708;-85
2020/12/31 04:57:47;;;;;;;7.00;5.10;;;;;;;3.23;70.98;97731.63;5005311;28;20309;-85
2020/12/31 05:00:13;;;;;;;5.10;4.20;;;;;;;3.18;72.26;97731.91;5012238;28;20222;-85
2020/12/31 05:02:40;;;;;;;6.40;5.00;;;;;;;3.25;71.44;97733.25;5026267;28;20221;-85
2020/12/31 05:05:07;;;;;;;6.10;3.72;;;;;;;3.25;70.72;97730.59;4994316;28;20226;-84
2020/12/31 05:07:33;;;;;;;5.63;4.18;;;;;;;3.18;71.21;97720.41;5009454;28;20294;-83
2020/12/31 05:10:11;;;;;;;7.15;5.00;;;;;;;3.17;71.04;97718.72;5010531;28;20201;-86
2020/12/31 05:12:38;;;;;;;6.55;4.35;;;;;;;3.10;71.18;97723.53;5013090;28;20671;-85
2020/12/31 05:15:05;;;;;;;6.55;4.05;;;;;;;3.20;70.78;97721.22;4994755;28;20202;-84
2020/12/31 05:17:31;;;;;;;5.85;4.25;;;;;;;3.18;70.53;97717.75;5027335;28;20240;-84
2020/12/31 05:19:57;;;;;;;11.30;4.47;;;;;;;3.18;70.41;97723.94;5036954;28;20779;-85
2020/12/31 05:22:24;;;;;;;6.00;4.38;;;;;;;3.18;70.28;97723.94;5016219;28;20324;-85
2020/12/31 05:24:52;;;;;;;5.28;4.20;;;;;;;3.24;70.16;97720.06;4986192;28;20230;-86
2020/12/31 05:27:23;;;;;;;6.82;4.70;;;;;;;3.27;70.05;97720.72;5025498;28;20272;-86
2020/12/31 05:30:09;;;;;;;6.25;5.38;;;;;;;3.31;69.54;97719.63;5019879;28;20198;-85
2020/12/31 05:32:37;;;;;;;8.25;4.43;;;;;;;3.25;69.83;97721.78;5021996;28;20228;-85
2020/12/31 05:35:17;;;;;;;5.88;4.18;;;;;;;3.29;69.75;97721.50;5017993;28;20242;-86
2020/12/31 05:37:44;;;;;;;6.75;4.50;;;;;;;3.38;69.44;97718.31;5036949;28;20257;-85
2020/12/31 05:40:12;;;;;;;4.45;3.78;;;;;;;3.38;69.24;97715.66;5032259;28;20226;-86
2020/12/31 05:42:41;;;;;;;6.82;4.70;;;;;;;3.41;69.53;97715.44;5032125;28;20234;-84
2020/12/31 05:45:28;;;;;;;5.03;4.15;;;;;;;3.56;67.85;97716.34;5004647;28;20289;-86
2020/12/31 05:47:54;;;;;;;6.35;4.82;;;;;;;3.57;67.64;97718.91;5021191;28;20275;-85
2020/12/31 05:50:28;;;;;;;5.30;4.03;;;;;;;3.50;68.16;97711.41;5017201;28;20572;-86
2020/12/31 05:52:54;;;;;;;5.65;4.00;;;;;;;3.52;67.73;97720.16;5015784;28;20237;-86
2020/12/31 05:55:23;;;;;;;5.30;4.57;;;;;;;3.49;68.58;97717.66;5034035;28;20755;-86
2020/12/31 05:57:54;;;;;;;5.22;4.07;;;;;;;3.63;68.39;97713.25;5019116;28;20226;-85
2020/12/31 06:00:28;;;;;;;5.53;4.15;;;;;;;3.60;68.00;97715.22;5012116;28;20326;-86
2020/12/31 06:02:55;;;;;;;5.75;4.30;;;;;;;3.59;68.43;97719.69;5017402;28;20218;-85
2020/12/31 06:05:22;;;;;;;7.97;4.93;;;;;;;3.59;68.08;97722.34;5018981;28;20249;-85
2020/12/31 06:07:54;;;;;;;4.75;3.97;;;;;;;3.56;68.62;97725.19;5005041;28;20222;-83
2020/12/31 06:10:29;;;;;;;4.88;4.07;;;;;;;3.63;68.68;97720.34;5009428;28;20221;-84
2020/12/31 06:12:59;;;;;;;6.18;4.80;;;;;;;3.82;68.09;97728.91;5018582;28;20308;-84
2020/12/31 06:15:26;;;;;;;8.23;4.88;;;;;;;3.65;67.99;97723.78;5019529;28;20225;-83
2020/12/31 06:17:53;;;;;;;5.07;4.38;;;;;;;3.54;69.17;97736.84;5018780;28;20229;-84
2020/12/31 06:20:23;;;;;;;6.07;5.00;;;;;;;3.62;69.26;97727.47;5013737;28;20206;-83
2020/12/31 06:23:04;;;;;;;5.72;4.82;;;;;;;3.61;69.26;97733.72;5000412;28;20788;-83
2020/12/31 06:25:34;;;;;;;5.60;4.35;;;;;;;3.59;69.86;97740.94;5014379;28;20240;-85
2020/12/31 06:28:21;;;;;;;5.10;4.05;;;;;;;3.57;71.06;97737.53;5011880;28;20226;-84
2020/12/31 06:30:52;;;;;;;7.35;4.72;;;;;;;3.43;73.39;97734.84;5014829;28;20248;-85
2020/12/31 06:33:40;;;;;;;7.07;5.32;;;;;;;3.32;74.29;97734.59;5011259;28;20212;-85
2020/12/31 06:36:07;;;;;;;6.80;6.10;;;;;;;3.21;74.47;97731.72;5005325;28;20716;-85
2020/12/31 06:38:39;;;;;;;5.10;4.60;;;;;;;3.23;75.08;97732.50;5011281;28;20226;-85
2020/12/31 06:41:31;;;;;;;6.55;5.30;;;;;;;3.19;75.40;97730.97;5008426;28;20218;-86
2020/12/31 06:44:11;;;;;;;8.15;5.72;;;;;;;3.01;77.27;97724.06;5029300;28;20228;-87
2020/12/31 06:46:50;;;;;;;8.10;5.47;;;;;;;3.12;78.20;97721.66;5031305;28;20219;-87
2020/12/31 06:49:17;;;;;;;7.00;5.47;;;;;;;3.27;77.87;97726.06;5021829;28;20289;-85
2020/12/31 06:51:43;;;;;;;8.30;6.00;;;;;;;3.09;78.59;97716.50;5025510;28;20216;-87
2020/12/31 06:54:11;;;;;;;8.07;6.15;;;;;;;3.06;78.55;97719.34;5015962;28;20230;-87
2020/12/31 06:56:49;;;;;;;9.70;6.78;;;;;;;2.96;79.71;97715.50;5011937;28;20210;-86
2020/12/31 06:59:25;;;;;;;6.47;5.50;;;;;;;3.16;79.92;97717.84;5006826;28;20222;-85
2020/12/31 07:01:51;;;;;;;8.35;6.70;;;;;;;3.20;80.07;97713.25;5028986;28;20224;-87
2020/12/31 07:04:43;;;;;;;8.43;6.43;;;;;;;3.39;79.02;97714.69;5009392;28;20231;-86
2020/12/31 07:07:19;;;;;;;8.68;7.05;;;;;;;3.23;79.91;97710.38;5011536;28;20233;-86
2020/12/31 07:09:59;;;;;;;13.98;7.53;;;;;;;3.09;79.70;97707.69;5024573;28;20236;-86
2020/12/31 07:12:41;;;;;;;12.32;6.82;;;;;;;2.95;80.71;97699.69;5003103;28;20271;-86
2020/12/31 07:15:08;;;;;;;12.32;7.45;;;;;;;2.91;81.48;97696.34;4994861;28;20198;-86
2020/12/31 07:17:40;;;;;;;10.70;7.22;;;;;;;2.90;81.55;97697.28;5010192;28;20217;-86
2020/12/31 07:20:15;;;;;;;10.25;7.22;;;;;;;2.93;82.28;97694.44;5020625;28;20751;-86
2020/12/31 07:22:43;;;;;;;10.07;8.20;;;;;;;2.95;82.32;97691.72;5006667;28;20248;-85
2020/12/31 07:25:12;;;;;;;9.90;7.68;;;;;;;3.05;81.77;97696.41;5010092;28;20245;-86
2020/12/31 07:27:40;;;;;;;11.15;7.43;;;;;;;2.91;82.60;97692.81;4997008;28;20325;-84
2020/12/31 07:30:06;;;;;;;11.73;7.95;;;;;;;2.90;83.20;97694.63;5014623;28;20765;-86
2020/12/31 07:32:56;;;;;;;10.10;7.93;;;;;;;2.94;82.74;97700.59;5026680;28;20692;-87
2020/12/31 07:35:39;;;;;;;9.40;6.45;;;;;;;2.90;83.18;97691.97;5023533;28;20464;-85
2020/12/31 07:38:05;;;;;;;8.55;6.55;;;;;;;2.87;82.84;97693.94;5016400;28;20618;-83
2020/12/31 07:40:53;;;;;;;9.70;7.05;;;;;;;2.81;83.75;97689.84;5015483;28;20223;-84
2020/12/31 07:43:24;;;;;;;10.10;7.55;;;;;;;2.77;84.21;97690.13;5018633;28;20778;-85
2020/12/31 07:45:53;;;;;;;9.57;7.40;;;;;;;2.80;83.79;97692.59;5026719;28;20465;-84
2020/12/31 07:48:21;;;;;;;9.95;6.68;;;;;;;2.82;84.63;97688.06;5000785;28;20234;-84
2020/12/31 07:51:01;;;;;;;9.57;7.78;;;;;;;2.94;83.83;97690.84;4999877;28;20273;-87
2020/12/31 07:53:30;;;;;;;9.13;7.40;;;;;;;2.84;83.76;97681.69;5030210;28;20221;-86
2020/12/31 07:55:57;;;;;;;9.05;6.50;;;;;;;2.89;83.91;97684.94;5027421;28;20226;-86
2020/12/31 07:58:25;;;;;;;8.88;6.75;;;;;;;3.17;83.00;97679.75;4999579;28;20240;-85
2020/12/31 08:01:04;;;;;;;7.85;6.50;;;;;;;3.04;82.53;97678.75;5009351;28;20286;-84
2020/12/31 08:03:31;;;;;;;7.75;6.18;;;;;;;3.05;82.81;97674.28;5016712;28;20232;-86
2020/12/31 08:05:58;;;;;;;7.03;6.22;;;;;;;3.09;82.41;97679.31;5009584;28;20321;-86
2020/12/31 08:08:25;;;;;;;9.27;6.30;;;;;;;3.09;83.36;97676.66;5019660;28;20293;-86
2020/12/31 08:10:51;;;;;;;10.15;7.20;;;;;;;3.12;83.57;97675.63;5034866;28;20234;-87
2020/12/31 08:13:17;;;;;;;9.48;7.63;;;;;;;3.12;83.83;97676.50;5029788;28;20218;-87
2020/12/31 08:15:54;;;;;;;8.18;7.22;;;;;;;3.04;83.05;97675.25;5013501;28;20226;-87
2020/12/31 08:18:22;;;;;;;6.97;6.30;;;;;;;3.05;83.12;97674.28;5012390;28;20240;-87
2020/12/31 08:20:50;;;;;;;9.30;6.72;;;;;;;3.12;83.18;97670.31;5008030;28;20206;-86
2020/12/31 08:23:18;;;;;;;8.45;6.43;;;;;;;3.19;82.86;97672.53;5025886;28;20223;-85
2020/12/31 08:25:50;;;;;;;8.75;7.40;;;;;;;3.22;83.12;97674.16;5023072;28;20226;-86
2020/12/31 08:28:19;;;;;;;9.27;6.85;;;;;;;3.28;82.83;97669.31;5008867;28;20525;-86
2020/12/31 08:30:45;;;;;;;9.00;7.35;;;;;;;3.40;82.57;97663.28;5011730;28;20230;-85
2020/12/31 08:33:12;;;;;;;9.20;6.57;;;;;;;3.70;81.24;97655.22;5016711;28;20238;-85
2020/12/31 08:35:40;;;;;;;9.27;8.07;;;;;;;3.74;80.20;97662.09;5033410;28;20210;-84
2020/12/31 08:38:15;;;;;;;11.07;8.85;;;;;;;3.58;80.81;97663.97;5040489;28;20234;-85
2020/12/31 08:40:45;;;;;;;7.82;7.03;;;;;;;3.62;81.41;97654.84;5028534;28;20225;-84
2020/12/31 08:43:20;;;;;;;7.30;6.28;;;;;;;3.83;80.82;97661.50;5025023;28;20734;-87
2020/12/31 08:45:51;;;;;;;9.10;6.80;;;;;;;3.75;80.72;97656.69;5024876;28;20313;-84
2020/12/31 08:48:26;;;;;;;7.35;6.03;;;;;;;3.82;79.72;97651.81;5021913;28;20230;-84
2020/12/31 08:51:10;;;;;;;7.93;5.85;;;;;;;3.96;78.73;97650.03;5015192;28;20220;-85
2020/12/31 08:53:55;;;;;;;4.97;4.18;;;;;;;3.94;78.40;97646.63;5016363;28;20195;-86
2020/12/31 08:56:25;;;;;;;6.78;5.15;;;;;;;4.06;76.77;97642.31;5045994;28;20249;-85
2020/12/31 08:59:30;;;;;;;5.45;4.13;;;;;;;3.87;76.21;97639.97;5032540;28;20236;-82
2020/12/31 09:02:01;;;;;;;5.40;3.67;;;;;;;3.65;76.60;97639.56;5026608;28;20242;-84
2020/12/31 09:04:27;;;;;;;5.78;4.22;;;;;;;3.73;77.79;97634.63;5015962;28;20249;-84
2020/12/31 09:06:57;;;;;;;4.47;4.07;;;;;;;3.66;78.40;97641.28;5034017;28;20237;-86
2020/12/31 09:09:28;;;;;;;4.55;4.05;;;;;;;3.79;77.47;97644.88;5027299;28;20290;-84
2020/12/31 09:11:57;;;;;;;4.90;3.92;;;;;;;3.73;78.31;97642.59;5044923;28;20186;-85
2020/12/31 09:14:23;;;;;;;4.00;3.60;;;;;;;3.62;78.85;97644.22;5037345;28;20210;-84
2020/12/31 09:16:50;;;;;;;4.75;4.00;;;;;;;3.80;79.14;97638.63;5012922;28;20226;-86
2020/12/31 09:19:16;;;;;;;4.57;3.90;;;;;;;3.91;77.12;97644.13;5006042;28;20611;-85
2020/12/31 09:21:42;;;;;;;3.28;2.97;;;;;;;3.85;76.67;97641.84;4997711;28;20226;-86
2020/12/31 09:24:22;;;;;;;4.45;4.05;;;;;;;3.74;78.27;97644.34;4991338;28;22539;-86
2020/12/31 09:26:58;;;;;;;3.55;3.15;;;;;;;3.91;76.92;97646.78;5015405;28;20260;-86
2020/12/31 09:29:29;;;;;;;3.75;3.42;;;;;;;3.90;77.96;97639.75;5022053;28;20308;-86
2020/12/31 09:31:56;;;;;;;3.55;3.17;;;;;;;4.08;77.17;97638.63;4994936;28;20210;-86
2020/12/31 09:34:22;;;;;;;3.50;3.20;;;;;;;4.12;78.11;97640.09;5002670;28;20235;-86
2020/12/31 09:36:49;;;;;;;4.10;3.05;;;;;;;4.07;77.03;97636.91;4999165;28;20233;-86
2020/12/31 09:39:16;;;;;;;3.30;2.60;;;;;;;4.04;75.32;97637.09;5018253;28;20232;-87
2020/12/31 09:41:42;;;;;;;3.53;3.22;;;;;;;3.87;76.11;97639.09;5010351;28;20222;-86
2020/12/31 09:44:08;;;;;;;4.88;3.90;;;;;;;4.12;76.65;97640.09;4992050;28;20229;-86
2020/12/31 09:46:34;;;;;;;3.35;3.05;;;;;;;4.26;77.16;97636.56;5007453;28;20324;-86
2020/12/31 09:49:00;;;;;;;3.88;3.47;;;;;;;3.92;76.30;97640.50;5004308;28;20313;-85
2020/12/31 09:51:26;;;;;;;3.45;3.15;;;;;;;3.92;76.34;97635.19;4993436;28;20240;-85
2020/12/31 09:53:52;;;;;;;4.63;3.85;;;;;;;3.96;76.71;97638.50;5005300;28;20269;-86
2020/12/31 09:56:19;;;;;;;3.88;3.47;;;;;;;3.98;76.81;97640.13;4986161;28;21491;-86
2020/12/31 09:58:45;;;;;;;3.65;3.20;;;;;;;3.74;77.10;97633.72;5003958;28;20256;-86
2020/12/31 10:01:12;;;;;;;4.50;3.63;;;;;;;3.89;78.53;97635.41;4995858;28;20232;-86
2020/12/31 10:03:38;;;;;;;3.33;3.03;;;;;;;3.95;78.16;97635.03;5013753;28;20240;-85
2020/12/31 10:06:06;;;;;;;3.88;3.40;;;;;;;3.96;77.02;97633.19;5017800;28;20207;-84
2020/12/31 10:08:32;;;;;;;4.32;3.92;;;;;;;3.63;77.56;97630.84;5022618;28;20229;-84
2020/12/31 10:11:00;;;;;;;4.38;3.25;;;;;;;3.62;78.28;97629.16;4986425;28;20226;-85
2020/12/31 10:13:27;;;;;;;4.30;3.45;;;;;;;3.75;78.90;97623.91;5005786;28;20234;-85
2020/12/31 10:15:54;;;;;;;4.43;3.38;;;;;;;3.81;78.66;97627.06;4999384;28;20230;-85
2020/12/31 10:18:20;;;;;;;3.90;3.40;;;;;;;3.94;78.14;97620.03;5009051;28;20488;-85
2020/12/31 10:20:46;;;;;;;3.80;3.05;;;;;;;3.89;78.20;97614.13;4987746;28;20221;-85
2020/12/31 10:23:12;;;;;;;4.97;3.92;;;;;;;4.13;78.53;97609.06;5022255;28;20222;-85
2020/12/31 10:25:38;;;;;;;4.05;3.33;;;;;;;4.17;76.96;97615.91;5004015;28;20341;-84
2020/12/31 10:28:04;;;;;;;3.42;3.13;;;;;;;3.92;76.91;97603.28;5013694;28;20238;-86
2020/12/31 10:30:30;;;;;;;4.07;3.53;;;;;;;3.76;78.21;97597.25;5009272;28;20233;-86
2020/12/31 10:32:57;;;;;;;4.05;3.20;;;;;;;3.76;78.23;97604.34;4992286;28;20215;-83
2020/12/31 10:35:23;;;;;;;4.15;3.45;;;;;;;3.96;77.98;97595.97;5015519;28;20213;-82
2020/12/31 10:37:49;;;;;;;4.63;4.00;;;;;;;4.08;78.64;97598.72;5004624;28;20234;-83
2020/12/31 10:40:15;;;;;;;3.53;2.95;;;;;;;4.08;77.48;97597.84;5010784;28;20237;-84
2020/12/31 10:42:42;;;;;;;3.70;3.40;;;;;;;4.06;77.86;97597.97;5011867;28;20234;-83
2020/12/31 10:45:08;;;;;;;3.28;2.92;;;;;;;4.13;77.19;97593.97;4994437;28;20209;-83
2020/12/31 10:47:34;;;;;;;10.63;8.15;;;;;;;4.37;76.87;97587.03;4995984;28;20229;-84
2020/12/31 10:50:03;;;;;;;7.95;6.53;;;;;;;4.47;76.78;97577.50;5007553;28;20253;-84
2020/12/31 10:52:29;;;;;;;4.25;3.85;;;;;;;4.60;76.96;97580.19;5006647;28;20281;-83
2020/12/31 10:54:56;;;;;;;4.82;4.32;;;;;;;4.64;75.95;97579.06;5009881;28;20210;-83
2020/12/31 10:57:23;;;;;;;3.90;3.00;;;;;;;4.60;76.75;97573.06;5004228;28;20245;-82
2020/12/31 10:59:49;;;;;;;4.50;4.00;;;;;;;4.41;75.96;97571.72;5016690;28;20241;-84
2020/12/31 11:02:15;;;;;;;3.92;3.50;;;;;;;4.26;75.88;97573.59;5021704;28;20225;-81
2020/12/31 11:04:41;;;;;;;4.85;3.75;;;;;;;4.29;77.12;97562.75;5018639;28;20224;-82
2020/12/31 11:07:07;;;;;;;4.13;3.28;;;;;;;4.16;76.87;97566.31;5012453;28;20230;-82
2020/12/31 11:09:33;;;;;;;4.00;3.20;;;;;;;4.10;77.57;97561.41;5016838;28;20744;-83
2020/12/31 11:11:59;;;;;;;4.75;3.28;;;;;;;4.34;77.88;97562.44;5012251;28;20461;-81
2020/12/31 11:14:25;;;;;;;4.57;3.53;;;;;;;4.44;76.99;97563.56;5027021;28;20241;-80
2020/12/31 11:16:52;;;;;;;3.95;3.40;;;;;;;4.26;76.77;97565.63;5021781;28;20256;-82
2020/12/31 11:19:18;;;;;;;3.92;3.40;;;;;;;4.36;78.01;97565.88;4989953;28;20326;-82
2020/12/31 11:21:45;;;;;;;4.55;3.13;;;;;;;4.50;76.64;97566.66;5008364;28;20965;-84
2020/12/31 11:24:11;;;;;;;4.05;3.53;;;;;;;4.54;76.83;97557.50;5002103;28;21313;-83
2020/12/31 11:26:39;;;;;;;3.67;3.38;;;;;;;4.48;75.77;97552.59;5003164;28;20218;-84
2020/12/31 11:29:05;;;;;;;4.70;3.75;;;;;;;4.29;76.06;97557.41;5007824;28;20214;-84
2020/12/31 11:31:31;;;;;;;4.53;4.00;;;;;;;4.31;77.56;97554.66;5008901;28;20230;-83
2020/12/31 11:34:00;;;;;;;4.72;3.78;;;;;;;4.36;78.62;97549.91;5003186;28;20226;-82
2020/12/31 11:36:27;;;;;;;4.30;3.17;;;;;;;4.49;76.87;97537.50;5026674;28;20232;-83
2020/12/31 11:38:59;;;;;;;4.22;3.15;;;;;;;4.18;76.52;97553.75;5006862;28;20224;-82
2020/12/31 11:41:27;;;;;;;4.10;3.70;;;;;;;4.16;76.54;97540.56;4993975;28;20325;-81
2020/12/31 11:43:54;;;;;;;4.45;4.05;;;;;;;4.19;78.01;97536.84;5003976;28;20222;-81
2020/12/31 11:46:20;;;;;;;3.80;3.47;;;;;;;4.30;75.99;97537.84;5005769;28;20226;-83
2020/12/31 11:48:46;;;;;;;3.80;3.50;;;;;;;4.26;76.91;97531.03;5000887;28;20339;-79